Time;durP1;ratioP1;P1;durP2;ratioP2;P2;SDS_P1;SDS_P2;PMS_P1;PMS_P2;Temp;Humidity;BMP_temperature;BMP_pressure;BME280_temperature;BME280_humidity;BME280_pressure;Samples;Min_cycle;Max_cycle;Signal;HPM_P1;HPM_P2
2022/12/31 00:01:01;;;;;;;9.23;8.93;;;13.70;99.90;;;;;;5079887;28;20465;-71
2022/12/31 00:03:28;;;;;;;8.43;8.13;;;13.60;99.90;;;;;;5089399;28;20458;-71
2022/12/31 00:05:55;;;;;;;8.40;8.10;;;13.60;99.90;;;;;;5098607;28;20494;-71
2022/12/31 00:08:23;;;;;;;8.40;7.93;;;13.60;99.90;;;;;;5083726;28;20461;-71
2022/12/31 00:10:50;;;;;;;7.60;7.30;;;13.60;99.90;;;;;;5077994;28;20462;-72
2022/12/31 00:13:16;;;;;;;7.57;7.27;;;13.60;99.90;;;;;;5075888;28;20625;-71
2022/12/31 00:15:43;;;;;;;7.27;7.07;;;13.60;99.90;;;;;;5081890;28;20544;-73
2022/12/31 00:18:12;;;;;;;7.30;7.00;;;13.60;99.90;;;;;;5082011;28;20467;-72
2022/12/31 00:20:41;;;;;;;7.33;7.10;;;13.60;99.90;;;;;;5076809;28;20957;-72
2022/12/31 00:23:08;;;;;;;7.37;7.17;;;13.60;99.90;;;;;;5075275;28;20549;-70
2022/12/31 00:25:36;;;;;;;7.03;6.83;;;13.70;99.90;;;;;;5080357;28;20465;-70
2022/12/31 00:28:04;;;;;;;7.53;7.33;;;13.70;99.90;;;;;;5083073;28;20966;-72
2022/12/31 00:30:31;;;;;;;7.10;6.80;;;13.70;99.90;;;;;;5083117;28;20470;-71
2022/12/31 00:32:58;;;;;;;7.20;7.00;;;13.80;99.90;;;;;;5080795;28;20993;-71
2022/12/31 00:35:26;;;;;;;7.17;6.97;;;13.80;99.90;;;;;;5081485;28;20490;-71
2022/12/31 00:37:53;;;;;;;6.40;6.20;;;13.90;99.90;;;;;;5080056;28;20549;-70
2022/12/31 00:40:21;;;;;;;6.30;6.10;;;13.90;99.90;;;;;;5080806;28;20473;-72
2022/12/31 00:42:48;;;;;;;6.27;6.07;;;14.00;99.90;;;;;;5080854;28;20502;-70
2022/12/31 00:45:15;;;;;;;6.10;5.90;;;14.00;99.90;;;;;;5075761;28;20467;-71
2022/12/31 00:47:42;;;;;;;5.53;5.33;;;14.10;99.90;;;;;;5080261;28;20462;-71
2022/12/31 00:50:09;;;;;;;4.80;4.70;;;14.10;99.90;;;;;;5080874;28;20476;-72
2022/12/31 00:52:38;;;;;;;4.60;4.50;;;14.20;99.90;;;;;;5081083;28;20477;-70
2022/12/31 00:55:06;;;;;;;4.60;4.33;;;14.20;99.90;;;;;;5076738;28;20579;-71
2022/12/31 00:57:32;;;;;;;4.20;4.10;;;14.20;99.90;;;;;;5072265;28;20468;-72
2022/12/31 00:59:59;;;;;;;4.40;4.10;;;14.30;99.90;;;;;;5081278;28;20466;-70
2022/12/31 01:02:26;;;;;;;3.70;3.60;;;14.40;99.90;;;;;;5077593;28;20513;-74
2022/12/31 01:04:53;;;;;;;3.80;3.60;;;14.50;99.90;;;;;;5080765;28;20509;-70
2022/12/31 01:07:20;;;;;;;3.90;3.80;;;14.50;99.90;;;;;;5084365;28;20923;-71
2022/12/31 01:09:48;;;;;;;4.07;3.97;;;14.60;99.90;;;;;;5077491;28;20462;-69
2022/12/31 01:12:15;;;;;;;3.80;3.70;;;14.70;99.90;;;;;;5081188;28;20465;-71
2022/12/31 01:14:42;;;;;;;3.97;3.87;;;14.70;99.90;;;;;;5074754;28;20688;-71
2022/12/31 01:17:08;;;;;;;3.70;3.60;;;14.80;99.90;;;;;;5079383;28;20481;-73
2022/12/31 01:19:35;;;;;;;3.90;3.80;;;14.90;99.90;;;;;;5078220;28;20958;-71
2022/12/31 01:22:02;;;;;;;3.93;3.83;;;15.00;99.90;;;;;;5087321;28;20464;-70
2022/12/31 01:24:29;;;;;;;4.00;3.90;;;15.10;99.90;;;;;;5074267;28;20562;-72
2022/12/31 01:26:57;;;;;;;4.07;3.97;;;15.10;99.90;;;;;;5075038;28;20865;-70
2022/12/31 01:29:24;;;;;;;3.93;3.83;;;15.20;99.90;;;;;;5074097;28;20463;-73
2022/12/31 01:31:51;;;;;;;4.13;4.03;;;15.20;99.90;;;;;;5076403;28;20920;-73
2022/12/31 01:34:18;;;;;;;4.60;4.40;;;15.30;99.90;;;;;;5088553;28;20477;-70
2022/12/31 01:36:45;;;;;;;4.50;4.40;;;15.30;99.90;;;;;;5076373;28;20473;-72
2022/12/31 01:39:12;;;;;;;4.53;4.33;;;15.30;99.90;;;;;;5078700;28;20520;-70
2022/12/31 01:41:41;;;;;;;4.60;4.50;;;15.40;99.90;;;;;;5080317;28;20462;-70
2022/12/31 01:44:49;;;;;;;7.53;4.43;;;15.40;99.90;;;;;;5082842;28;20517;-70
2022/12/31 01:47:22;;;;;;;4.30;4.20;;;15.40;99.90;;;;;;5074140;28;20467;-70
2022/12/31 01:49:53;;;;;;;4.30;4.20;;;15.30;99.90;;;;;;5073638;28;20868;-70
2022/12/31 01:52:24;;;;;;;4.90;4.80;;;15.30;99.90;;;;;;5085167;28;20476;-70
2022/12/31 01:54:53;;;;;;;4.80;4.70;;;15.30;99.90;;;;;;5081638;28;20497;-71
2022/12/31 01:57:22;;;;;;;4.60;4.50;;;15.40;99.90;;;;;;5079547;28;20458;-70
2022/12/31 01:59:51;;;;;;;4.70;4.50;;;15.40;99.90;;;;;;5076952;28;20467;-70
2022/12/31 02:02:17;;;;;;;4.60;4.50;;;15.40;99.90;;;;;;5070508;28;20467;-70
2022/12/31 02:04:45;;;;;;;4.93;4.80;;;15.40;99.90;;;;;;5081097;28;20493;-71
2022/12/31 02:07:12;;;;;;;4.87;4.77;;;15.40;99.90;;;;;;5081538;28;20458;-70
2022/12/31 02:09:41;;;;;;;5.13;4.97;;;15.40;99.90;;;;;;5082099;28;20466;-73
2022/12/31 02:12:09;;;;;;;4.80;4.70;;;15.40;99.90;;;;;;5083799;28;20981;-70
2022/12/31 02:14:40;;;;;;;5.00;4.90;;;15.40;99.90;;;;;;5080765;28;20607;-73
2022/12/31 02:17:16;;;;;;;5.30;4.90;;;15.40;99.90;;;;;;5079042;28;20494;-70
2022/12/31 02:20:13;;;;;;;4.90;4.80;;;15.40;99.90;;;;;;5075998;28;20488;-72
2022/12/31 02:22:57;;;;;;;5.30;5.10;;;15.40;99.90;;;;;;5080219;28;20512;-71
2022/12/31 02:25:45;;;;;;;5.27;5.07;;;15.40;99.90;;;;;;5082650;28;20853;-70
2022/12/31 02:28:25;;;;;;;5.20;5.10;;;15.40;99.90;;;;;;5079325;28;20806;-71
2022/12/31 02:31:00;;;;;;;5.10;5.00;;;15.50;99.90;;;;;;5079382;28;20949;-70
2022/12/31 02:33:35;;;;;;;5.70;5.50;;;15.50;99.90;;;;;;5080852;28;20464;-73
2022/12/31 02:36:06;;;;;;;5.60;5.40;;;15.60;99.90;;;;;;5075852;28;20489;-71
2022/12/31 02:38:36;;;;;;;6.20;6.00;;;15.60;99.90;;;;;;5069659;28;20474;-71
2022/12/31 02:41:05;;;;;;;6.33;5.93;;;15.70;99.90;;;;;;5078224;28;20537;-71
2022/12/31 02:43:31;;;;;;;5.63;5.43;;;15.70;99.90;;;;;;5080187;28;20497;-73
2022/12/31 02:46:11;;;;;;;5.60;5.40;;;15.70;99.90;;;;;;5075793;28;20458;-71
2022/12/31 02:48:49;;;;;;;6.23;5.83;;;15.70;99.90;;;;;;5075828;28;20469;-70
2022/12/31 02:51:29;;;;;;;6.03;5.70;;;15.80;99.90;;;;;;5079051;28;20465;-71
2022/12/31 02:54:12;;;;;;;5.67;5.47;;;15.70;99.90;;;;;;5078452;28;20461;-70
2022/12/31 02:56:51;;;;;;;5.17;5.07;;;15.60;99.90;;;;;;5076244;28;21004;-71
2022/12/31 03:02:15;;;;;;;6.20;6.00;;;15.60;99.90;;;;;;5074710;28;20600;-70
2022/12/31 03:04:45;;;;;;;6.10;5.70;;;15.60;99.90;;;;;;5076594;28;20493;-72
2022/12/31 03:07:14;;;;;;;6.43;5.93;;;15.60;99.90;;;;;;5070458;28;20470;-72
2022/12/31 03:09:42;;;;;;;6.60;6.30;;;15.70;99.90;;;;;;5081444;28;20832;-71
2022/12/31 03:14:56;;;;;;;6.00;5.80;;;15.70;99.90;;;;;;5073462;28;20900;-71
2022/12/31 03:17:24;;;;;;;6.20;6.00;;;15.70;99.90;;;;;;5080923;28;20948;-72
2022/12/31 03:22:45;;;;;;;5.30;4.90;;;15.60;99.90;;;;;;5022801;28;20453;-72
2022/12/31 03:28:00;;;;;;;5.33;5.13;;;15.30;99.90;;;;;;5082737;28;20480;-70
2022/12/31 03:30:28;;;;;;;5.20;4.90;;;15.00;99.90;;;;;;5081759;28;20464;-70
2022/12/31 03:32:56;;;;;;;5.00;4.70;;;15.00;99.90;;;;;;5082101;28;20550;-70
2022/12/31 03:35:24;;;;;;;4.73;4.63;;;15.00;99.90;;;;;;5083385;28;20881;-70
2022/12/31 03:37:52;;;;;;;4.73;4.53;;;15.00;99.90;;;;;;5081964;28;20467;-70
2022/12/31 03:40:21;;;;;;;5.30;4.83;;;15.00;99.90;;;;;;5078687;28;20465;-70
2022/12/31 03:42:48;;;;;;;5.40;5.00;;;15.00;99.90;;;;;;5082269;28;20469;-69
2022/12/31 03:45:16;;;;;;;5.60;5.40;;;15.00;99.90;;;;;;5086234;28;20469;-69
2022/12/31 03:47:43;;;;;;;6.37;6.07;;;;;;;;;;5081577;28;20453;-71
2022/12/31 03:50:13;;;;;;;5.60;5.40;;;;;;;;;;5074982;28;20461;-69
2022/12/31 03:52:40;;;;;;;6.17;5.87;;;15.00;99.90;;;;;;5084829;28;20546;-68
2022/12/31 03:55:08;;;;;;;6.23;6.03;;;15.00;99.90;;;;;;5082195;28;21087;-70
2022/12/31 03:57:36;;;;;;;6.53;6.23;;;15.00;99.90;;;;;;5079695;28;20963;-72
2022/12/31 04:00:05;;;;;;;6.10;5.70;;;15.00;99.90;;;;;;5084447;28;20553;-70
2022/12/31 04:02:32;;;;;;;6.30;5.90;;;;;;;;;;5084072;28;20461;-70
2022/12/31 04:04:59;;;;;;;6.00;5.80;;;15.10;99.90;;;;;;5080834;28;20486;-71
2022/12/31 04:07:27;;;;;;;5.70;5.50;;;15.20;99.90;;;;;;5076109;28;20459;-69
2022/12/31 04:09:55;;;;;;;5.43;5.23;;;15.20;99.90;;;;;;5077823;28;20462;-70
2022/12/31 04:12:21;;;;;;;4.93;4.73;;;15.20;99.90;;;;;;5080983;28;20900;-71
2022/12/31 04:14:48;;;;;;;5.13;4.87;;;15.20;99.90;;;;;;5078560;28;20470;-70
2022/12/31 04:17:16;;;;;;;4.60;4.40;;;15.20;99.90;;;;;;5082090;28;20454;-70
2022/12/31 04:19:43;;;;;;;4.50;4.30;;;;;;;;;;5078158;28;20466;-72
2022/12/31 04:22:10;;;;;;;4.43;4.23;;;;;;;;;;5078826;28;20541;-70
2022/12/31 04:24:38;;;;;;;4.60;4.50;;;;;;;;;;5078684;28;20509;-71
2022/12/31 04:27:05;;;;;;;4.93;4.73;;;;;;;;;;5080828;28;20520;-71
2022/12/31 04:29:32;;;;;;;4.70;4.50;;;;;;;;;;5077611;28;20465;-73
2022/12/31 04:32:00;;;;;;;5.33;4.93;;;;;;;;;;5078952;28;20469;-70
2022/12/31 04:34:27;;;;;;;5.20;5.00;;;15.60;99.90;;;;;;5076498;28;20757;-70
2022/12/31 04:36:54;;;;;;;5.70;5.33;;;15.60;99.90;;;;;;5076984;28;20486;-70
2022/12/31 04:39:21;;;;;;;5.60;5.40;;;15.70;99.90;;;;;;5080809;28;20848;-71
2022/12/31 04:41:49;;;;;;;6.50;6.10;;;15.70;99.90;;;;;;5081954;28;20939;-70
2022/12/31 04:44:17;;;;;;;5.67;5.37;;;;;;;;;;5076398;28;20868;-71
2022/12/31 04:46:44;;;;;;;6.20;5.70;;;;;;;;;;5080108;28;20827;-70
2022/12/31 04:49:11;;;;;;;6.20;5.80;;;15.80;99.90;;;;;;5085743;28;20773;-69
2022/12/31 04:51:38;;;;;;;6.40;6.20;;;15.80;99.90;;;;;;5078728;28;20469;-71
2022/12/31 04:54:05;;;;;;;6.07;5.77;;;15.90;99.90;;;;;;5082969;28;20820;-70
2022/12/31 04:56:35;;;;;;;6.30;6.00;;;15.90;99.90;;;;;;5076452;28;20496;-71
2022/12/31 04:59:03;;;;;;;6.30;6.10;;;15.90;99.90;;;;;;5080616;28;20470;-71
2022/12/31 05:01:31;;;;;;;6.37;6.17;;;15.90;99.90;;;;;;5078030;28;20462;-70
2022/12/31 05:03:58;;;;;;;6.50;6.20;;;15.90;99.90;;;;;;5079381;28;22078;-71
2022/12/31 05:06:27;;;;;;;6.63;6.33;;;15.80;99.90;;;;;;5074980;28;20985;-70
2022/12/31 05:08:54;;;;;;;7.47;6.60;;;15.80;99.90;;;;;;5082131;28;20470;-73
2022/12/31 05:11:21;;;;;;;6.57;6.20;;;15.80;99.90;;;;;;5084221;28;20878;-71
2022/12/31 05:13:48;;;;;;;6.33;6.07;;;15.70;99.90;;;;;;5077147;28;20470;-71
2022/12/31 05:16:16;;;;;;;6.07;5.87;;;15.80;99.90;;;;;;5083002;28;20889;-71
2022/12/31 05:18:43;;;;;;;6.10;5.90;;;15.80;99.90;;;;;;5081066;28;20825;-74
2022/12/31 05:21:15;;;;;;;6.30;6.10;;;15.80;99.90;;;;;;5082363;28;21068;-75
2022/12/31 05:23:41;;;;;;;6.50;6.10;;;15.80;99.90;;;;;;5076783;28;20462;-73
2022/12/31 05:26:08;;;;;;;6.23;5.93;;;15.80;99.90;;;;;;5086157;28;20466;-73
2022/12/31 05:28:35;;;;;;;6.80;6.40;;;15.80;99.90;;;;;;5079811;28;20454;-70
2022/12/31 05:31:01;;;;;;;7.17;6.70;;;15.90;99.90;;;;;;5081673;28;20491;-70
2022/12/31 05:33:30;;;;;;;6.50;6.20;;;15.90;99.90;;;;;;5084519;28;20469;-72
2022/12/31 05:35:57;;;;;;;6.37;6.13;;;15.90;99.90;;;;;;5079380;28;20509;-73
2022/12/31 05:38:24;;;;;;;6.87;6.33;;;;;;;;;;5069043;28;20553;-72
2022/12/31 05:40:59;;;;;;;6.77;6.30;;;;;;;;;;5081520;28;20458;-70
2022/12/31 05:43:26;;;;;;;5.90;5.60;;;;;;;;;;5075774;28;20477;-71
2022/12/31 05:45:53;;;;;;;6.67;6.10;;;15.90;99.90;;;;;;5080957;28;20454;-70
2022/12/31 05:48:20;;;;;;;6.50;6.10;;;;;;;;;;5075822;28;21022;-74
2022/12/31 05:50:49;;;;;;;6.87;6.17;;;;;;;;;;5088892;28;20961;-71
2022/12/31 05:53:16;;;;;;;6.23;5.93;;;;;;;;;;5072724;28;20454;-71
2022/12/31 05:55:43;;;;;;;6.83;6.47;;;;;;;;;;5082309;28;20478;-72
2022/12/31 05:58:10;;;;;;;6.60;6.30;;;;;;;;;;5077315;28;20466;-71
2022/12/31 06:00:37;;;;;;;7.20;6.50;;;;;;;;;;5078033;28;20454;-72
2022/12/31 06:03:04;;;;;;;6.53;6.17;;;;;;;;;;5080389;28;20462;-72
2022/12/31 06:05:30;;;;;;;6.30;6.10;;;16.10;99.90;;;;;;5077709;28;20489;-72
2022/12/31 06:07:59;;;;;;;6.53;6.20;;;16.10;99.90;;;;;;5074943;28;20461;-73
2022/12/31 06:10:27;;;;;;;7.43;6.83;;;;;;;;;;5074889;28;20552;-71
2022/12/31 06:12:54;;;;;;;7.00;6.80;;;;;;;;;;5078001;28;20952;-72
2022/12/31 06:15:21;;;;;;;6.93;6.63;;;;;;;;;;5076203;28;20462;-73
2022/12/31 06:17:47;;;;;;;7.03;6.60;;;16.20;99.90;;;;;;5070222;28;20474;-71
2022/12/31 06:20:14;;;;;;;7.40;7.00;;;16.20;99.90;;;;;;5076833;28;20454;-75
2022/12/31 06:22:41;;;;;;;7.10;6.80;;;16.20;99.90;;;;;;5092017;28;20519;-72
2022/12/31 06:25:10;;;;;;;7.80;7.40;;;16.20;99.90;;;;;;5077962;28;20465;-73
2022/12/31 06:27:36;;;;;;;7.50;7.20;;;16.30;99.90;;;;;;5075558;28;20466;-71
2022/12/31 06:30:04;;;;;;;7.57;7.10;;;16.40;99.90;;;;;;5079824;28;20458;-74
2022/12/31 06:32:31;;;;;;;7.60;7.20;;;16.40;99.90;;;;;;5073434;28;20489;-71
2022/12/31 06:34:58;;;;;;;7.80;7.50;;;16.40;99.90;;;;;;5083152;28;20487;-75
2022/12/31 06:37:25;;;;;;;7.70;7.30;;;;;;;;;;5082903;28;20485;-71
2022/12/31 06:39:53;;;;;;;7.97;7.50;;;16.30;99.90;;;;;;5077582;28;20494;-71
2022/12/31 06:42:21;;;;;;;7.53;7.10;;;16.20;99.90;;;;;;5075387;28;20471;-70
2022/12/31 06:44:48;;;;;;;7.83;7.33;;;16.30;99.90;;;;;;5079925;28;20471;-72
2022/12/31 06:47:15;;;;;;;7.60;7.20;;;16.20;99.90;;;;;;5081792;28;20475;-71
2022/12/31 06:49:42;;;;;;;7.33;7.03;;;16.20;99.90;;;;;;5076152;28;20515;-72
2022/12/31 06:52:08;;;;;;;7.40;7.00;;;16.10;99.90;;;;;;5076109;28;20484;-73
2022/12/31 06:54:36;;;;;;;8.50;6.70;;;16.10;99.90;;;;;;5084059;28;20458;-73
2022/12/31 06:57:03;;;;;;;7.37;6.97;;;16.10;99.90;;;;;;5075183;28;20501;-70
2022/12/31 06:59:32;;;;;;;7.57;7.00;;;16.10;99.90;;;;;;5081624;28;20465;-70
2022/12/31 07:02:21;;;;;;;7.17;6.77;;;16.10;99.90;;;;;;5086376;28;20657;-70
2022/12/31 07:05:17;;;;;;;6.60;6.30;;;16.10;99.90;;;;;;5082778;28;20482;-72
2022/12/31 07:08:01;;;;;;;6.37;5.83;;;16.10;99.90;;;;;;5087352;28;21212;-70
2022/12/31 07:10:37;;;;;;;6.87;6.57;;;;;;;;;;5080360;28;20457;-71
2022/12/31 07:13:09;;;;;;;7.30;6.80;;;;;;;;;;5078502;28;20479;-70
2022/12/31 07:15:57;;;;;;;7.13;6.83;;;;;;;;;;5080280;28;20969;-73
2022/12/31 07:18:31;;;;;;;7.30;6.90;;;16.20;99.90;;;;;;5081836;28;20473;-70
2022/12/31 07:20:59;;;;;;;7.03;6.73;;;16.20;99.90;;;;;;5083875;28;20824;-72
2022/12/31 07:23:26;;;;;;;7.70;7.40;;;16.20;99.90;;;;;;5084705;28;20460;-71
2022/12/31 07:26:05;;;;;;;7.80;7.50;;;16.30;99.90;;;;;;5085530;28;20457;-71
2022/12/31 07:28:39;;;;;;;8.27;7.53;;;;;;;;;;5080986;28;21043;-73
2022/12/31 07:31:11;;;;;;;8.20;7.70;;;;;;;;;;5082664;28;20980;-71
2022/12/31 07:33:44;;;;;;;8.70;8.10;;;;;;;;;;5091905;28;20461;-72
2022/12/31 07:36:18;;;;;;;9.23;8.63;;;;;;;;;;5079172;28;20490;-71
2022/12/31 07:38:51;;;;;;;8.37;7.73;;;;;;;;;;5077093;28;20985;-74
2022/12/31 07:41:23;;;;;;;8.63;8.23;;;;;;;;;;5084357;28;20545;-75
2022/12/31 07:43:55;;;;;;;8.60;8.23;;;;;;;;;;5082476;28;21024;-71
2022/12/31 07:46:27;;;;;;;9.30;8.60;;;;;;;;;;5081939;28;20473;-73
2022/12/31 07:48:54;;;;;;;10.30;9.43;;;;;;;;;;5079654;28;20461;-72
2022/12/31 07:51:21;;;;;;;10.20;9.60;;;;;;;;;;5086213;28;20976;-72
2022/12/31 07:53:48;;;;;;;9.33;8.93;;;;;;;;;;5075979;28;20473;-71
2022/12/31 07:56:15;;;;;;;8.60;8.20;;;16.30;99.90;;;;;;5088865;28;20474;-72
2022/12/31 07:58:51;;;;;;;8.60;8.20;;;;;;;;;;5087951;28;20484;-74
2022/12/31 08:01:29;;;;;;;9.57;9.07;;;16.40;99.90;;;;;;5078279;28;20497;-73
2022/12/31 08:04:02;;;;;;;9.90;9.30;;;;;;;;;;5088303;28;20512;-72
2022/12/31 08:06:34;;;;;;;8.87;8.40;;;;;;;;;;5087044;28;20472;-75
2022/12/31 08:09:04;;;;;;;8.77;8.27;;;;;;;;;;5083593;28;20471;-72
2022/12/31 08:11:35;;;;;;;9.37;8.90;;;;;;;;;;5081003;28;20821;-73
2022/12/31 08:14:03;;;;;;;9.23;8.50;;;;;;;;;;5090962;28;21242;-72
2022/12/31 08:16:31;;;;;;;9.00;8.60;;;;;;;;;;5088278;28;20514;-72
2022/12/31 08:18:59;;;;;;;9.23;8.63;;;16.30;99.90;;;;;;5085500;28;20462;-76
2022/12/31 08:21:32;;;;;;;8.67;8.27;;;;;;;;;;5088836;28;20816;-75
2022/12/31 08:24:08;;;;;;;8.77;8.27;;;15.50;99.90;;;;;;5085757;28;20808;-73
2022/12/31 08:26:37;;;;;;;9.47;8.73;;;16.30;99.90;;;;;;5082310;28;20465;-72
2022/12/31 08:29:22;;;;;;;8.80;8.40;;;16.30;99.90;;;;;;5078506;28;20474;-72
2022/12/31 08:31:57;;;;;;;9.47;9.00;;;16.40;99.90;;;;;;5083359;28;20838;-72
2022/12/31 08:34:32;;;;;;;9.67;9.17;;;16.50;99.90;;;;;;5081064;28;20970;-73
2022/12/31 08:40:00;;;;;;;9.70;9.30;;;;;;;;;;5075301;28;20913;-72
2022/12/31 08:42:32;;;;;;;9.93;9.43;;;16.70;99.90;;;;;;5077374;28;20459;-71
2022/12/31 08:45:06;;;;;;;10.33;9.83;;;16.70;99.90;;;;;;5085753;28;20554;-71
2022/12/31 08:47:43;;;;;;;10.17;9.27;;;16.70;99.90;;;;;;5079369;28;20960;-71
2022/12/31 08:50:15;;;;;;;9.90;9.40;;;16.70;99.90;;;;;;5083591;28;20453;-71
2022/12/31 08:52:42;;;;;;;10.23;9.63;;;16.80;99.90;;;;;;5073254;28;20459;-72
2022/12/31 08:55:14;;;;;;;10.60;9.90;;;16.80;99.90;;;;;;5084195;28;20799;-71
2022/12/31 08:57:46;;;;;;;10.20;9.70;;;16.90;99.90;;;;;;5075487;28;20501;-75
2022/12/31 09:00:15;;;;;;;10.20;9.60;;;16.90;99.90;;;;;;5080201;28;20952;-73
2022/12/31 09:02:59;;;;;;;10.63;9.83;;;17.00;99.90;;;;;;5081331;28;20552;-74
2022/12/31 09:05:32;;;;;;;10.33;9.73;;;17.00;99.90;;;;;;5073838;28;21306;-71
2022/12/31 09:08:11;;;;;;;10.77;9.80;;;17.00;99.90;;;;;;5083610;28;20466;-73
2022/12/31 09:10:44;;;;;;;10.60;10.10;;;17.10;99.90;;;;;;5073321;28;20484;-74
2022/12/31 09:13:18;;;;;;;10.43;9.70;;;17.10;99.90;;;;;;5073619;28;20830;-71
2022/12/31 09:15:52;;;;;;;10.80;9.93;;;17.10;99.90;;;;;;5082421;28;20530;-75
2022/12/31 09:18:22;;;;;;;11.10;10.10;;;17.20;99.90;;;;;;5078944;28;20500;-70
2022/12/31 09:20:49;;;;;;;10.00;9.60;;;17.10;99.90;;;;;;5083840;28;20462;-71
2022/12/31 09:23:16;;;;;;;10.77;10.23;;;17.10;99.90;;;;;;5083598;28;20489;-71
2022/12/31 09:25:51;;;;;;;10.30;9.77;;;17.20;99.90;;;;;;5081828;28;20470;-70
2022/12/31 09:28:33;;;;;;;11.23;10.30;;;17.20;99.90;;;;;;5084252;28;20465;-74
2022/12/31 09:31:06;;;;;;;11.00;10.30;;;17.20;99.90;;;;;;5080775;28;20461;-71
2022/12/31 09:33:41;;;;;;;10.50;9.80;;;17.30;99.90;;;;;;5076970;28;21257;-70
2022/12/31 09:36:11;;;;;;;10.60;10.00;;;17.30;99.90;;;;;;5073485;28;20465;-70
2022/12/31 09:38:45;;;;;;;10.27;9.80;;;17.30;99.90;;;;;;5075050;28;20752;-71
2022/12/31 09:41:14;;;;;;;11.83;11.13;;;17.40;99.90;;;;;;5079316;28;20833;-71
2022/12/31 09:44:20;;;;;;;11.30;10.50;;;17.40;99.90;;;;;;5074403;28;20482;-70
2022/12/31 09:47:08;;;;;;;11.77;11.17;;;;;;;;;;5078418;28;20531;-70
2022/12/31 09:50:05;;;;;;;11.00;10.50;;;;;;;;;;5070594;28;20454;-71
2022/12/31 09:52:47;;;;;;;11.33;10.63;;;17.50;99.90;;;;;;5085844;28;20461;-73
2022/12/31 09:55:29;;;;;;;11.33;10.37;;;17.50;99.90;;;;;;5079925;28;20844;-71
2022/12/31 09:58:12;;;;;;;12.30;11.30;;;17.50;99.90;;;;;;5084366;28;20485;-72
2022/12/31 10:00:43;;;;;;;11.20;10.60;;;17.50;99.90;;;;;;5079856;28;20472;-70
2022/12/31 10:03:43;;;;;;;10.90;10.40;;;17.50;99.90;;;;;;5089195;28;20826;-70
2022/12/31 10:06:28;;;;;;;11.07;10.37;;;;;;;;;;5061842;28;20973;-70
2022/12/31 10:09:03;;;;;;;11.80;10.77;;;;;;;;;;5058236;28;20574;-72
2022/12/31 10:11:34;;;;;;;11.50;10.80;;;;;;;;;;5054596;28;20470;-72
2022/12/31 10:14:08;;;;;;;11.70;10.90;;;;;;;;;;5056828;28;20579;-71
2022/12/31 10:16:58;;;;;;;11.50;10.70;;;17.50;99.90;;;;;;5059393;28;20566;-70
2022/12/31 10:19:51;;;;;;;11.60;10.90;;;17.50;99.90;;;;;;5059116;28;20506;-70
2022/12/31 10:22:37;;;;;;;11.50;10.90;;;17.70;99.90;;;;;;5057826;28;20554;-71
2022/12/31 10:25:23;;;;;;;12.00;11.37;;;17.60;99.90;;;;;;5055494;28;20467;-72
2022/12/31 10:27:54;;;;;;;11.00;10.40;;;17.60;99.90;;;;;;5063638;28;20458;-70
2022/12/31 10:30:23;;;;;;;11.13;10.33;;;17.70;99.90;;;;;;5058405;28;20471;-70
2022/12/31 10:33:05;;;;;;;11.53;11.00;;;18.10;99.90;;;;;;5062241;28;20521;-70
2022/12/31 10:35:40;;;;;;;12.43;11.57;;;18.00;99.90;;;;;;5066028;28;20825;-70
2022/12/31 10:38:21;;;;;;;12.53;11.80;;;17.90;99.90;;;;;;5066521;28;20485;-70
2022/12/31 10:41:35;;;;;;;12.00;11.37;;;17.90;99.90;;;;;;5064843;28;20463;-73
2022/12/31 10:44:42;;;;;;;12.30;11.10;;;17.90;99.90;;;;;;5063686;28;20465;-70
2022/12/31 10:47:51;;;;;;;11.57;10.97;;;17.80;99.90;;;;;;5065239;28;21177;-73
2022/12/31 10:50:41;;;;;;;11.57;11.07;;;17.80;99.90;;;;;;5004783;28;20461;-71
2022/12/31 10:53:34;;;;;;;11.77;10.83;;;17.80;99.90;;;;;;5063321;28;20488;-69
2022/12/31 10:56:38;;;;;;;11.57;11.00;;;17.70;99.90;;;;;;5068464;28;20471;-70
2022/12/31 10:59:37;;;;;;;11.53;10.93;;;17.80;99.90;;;;;;5054733;28;20478;-73
2022/12/31 11:02:31;;;;;;;11.77;11.13;;;17.90;99.90;;;;;;5064795;28;20454;-70
2022/12/31 11:05:22;;;;;;;12.40;11.37;;;17.90;99.90;;;;;;5074217;28;20501;-73
2022/12/31 11:08:05;;;;;;;12.50;11.60;;;18.10;99.90;;;;;;5087497;28;21418;-71
2022/12/31 11:10:56;;;;;;;11.70;11.10;;;18.20;99.90;;;;;;5087102;28;20460;-71
2022/12/31 11:14:02;;;;;;;12.43;11.73;;;18.20;99.90;;;;;;5082836;28;20452;-71
2022/12/31 11:16:44;;;;;;;12.13;11.30;;;18.40;99.90;;;;;;5078316;28;21278;-72
2022/12/31 11:19:18;;;;;;;11.80;11.00;;;17.00;99.90;;;;;;5085747;28;20504;-75
2022/12/31 11:22:09;;;;;;;11.80;11.00;;;18.50;99.90;;;;;;5083940;28;20552;-71
2022/12/31 11:24:46;;;;;;;12.40;11.50;;;18.50;99.90;;;;;;5081195;28;20470;-71
2022/12/31 11:27:38;;;;;;;11.67;11.07;;;18.60;99.90;;;;;;5084203;28;21211;-73
2022/12/31 11:30:18;;;;;;;12.07;11.47;;;18.40;99.90;;;;;;5083547;28;20458;-72
2022/12/31 11:33:03;;;;;;;12.50;11.80;;;18.30;99.90;;;;;;5084743;28;21001;-70
2022/12/31 11:35:42;;;;;;;12.30;11.60;;;18.20;99.90;;;;;;5091540;28;20903;-72
2022/12/31 11:38:18;;;;;;;12.07;11.37;;;18.20;99.90;;;;;;5077854;28;20482;-71
2022/12/31 11:40:53;;;;;;;12.13;11.37;;;18.10;99.90;;;;;;5088663;28;22273;-72
2022/12/31 11:43:28;;;;;;;12.37;11.70;;;18.10;99.90;;;;;;5084893;28;20464;-74
2022/12/31 11:46:18;;;;;;;13.03;12.13;;;18.00;99.90;;;;;;5086718;28;20565;-72
2022/12/31 11:49:00;;;;;;;12.23;11.30;;;16.50;99.90;;;;;;5069555;28;20454;-73
2022/12/31 11:51:42;;;;;;;11.90;11.30;;;18.00;99.90;;;;;;5081506;28;20464;-72
2022/12/31 11:54:36;;;;;;;12.63;11.70;;;18.00;99.90;;;;;;5076669;28;20485;-75
2022/12/31 11:57:14;;;;;;;15.17;12.10;;;18.00;99.90;;;;;;5075203;28;20458;-72
2022/12/31 11:59:41;;;;;;;12.20;11.50;;;17.90;99.90;;;;;;5081778;28;20469;-76
2022/12/31 12:02:25;;;;;;;12.13;11.10;;;18.00;99.90;;;;;;5084585;28;20474;-76
2022/12/31 12:04:56;;;;;;;11.90;11.20;;;18.00;99.90;;;;;;5080828;28;22336;-74
2022/12/31 12:07:23;;;;;;;12.20;11.60;;;17.80;99.90;;;;;;5079123;28;20463;-72
2022/12/31 12:09:52;;;;;;;12.10;11.20;;;17.90;99.90;;;;;;5085945;28;20561;-72
2022/12/31 12:12:19;;;;;;;12.17;11.30;;;17.80;99.90;;;;;;5080137;28;20465;-72
2022/12/31 12:14:52;;;;;;;11.87;11.23;;;17.90;99.90;;;;;;5076918;28;20494;-72
2022/12/31 12:17:30;;;;;;;12.70;11.90;;;18.10;99.90;;;;;;5083834;28;20459;-71
2022/12/31 12:20:01;;;;;;;12.60;11.50;;;18.10;99.90;;;;;;5078399;28;20505;-75
2022/12/31 12:22:29;;;;;;;12.80;11.90;;;17.00;99.90;;;;;;5091098;28;20861;-72
2022/12/31 12:24:58;;;;;;;13.00;11.70;;;19.40;99.90;;;;;;5079571;28;20586;-72
2022/12/31 12:27:28;;;;;;;12.30;11.60;;;17.90;99.90;;;;;;5084772;28;20457;-72
2022/12/31 12:29:55;;;;;;;11.77;11.20;;;17.80;99.90;;;;;;5084020;28;20475;-71
2022/12/31 12:32:24;;;;;;;11.97;11.37;;;17.40;99.90;;;;;;5087910;28;20466;-73
2022/12/31 12:34:52;;;;;;;12.07;11.20;;;17.90;99.90;;;;;;5085547;28;20558;-73
2022/12/31 12:37:29;;;;;;;12.47;11.87;;;17.80;99.90;;;;;;5081819;28;20461;-73
2022/12/31 12:39:57;;;;;;;12.27;11.33;;;17.80;99.90;;;;;;5093213;28;20461;-72
2022/12/31 12:42:23;;;;;;;11.63;11.00;;;17.80;99.90;;;;;;5080537;28;20524;-77
2022/12/31 12:45:02;;;;;;;11.40;10.90;;;17.90;99.90;;;;;;5077315;28;20841;-71
2022/12/31 12:47:29;;;;;;;11.97;11.47;;;17.70;99.90;;;;;;5074315;28;20474;-73
2022/12/31 12:49:56;;;;;;;12.27;11.57;;;17.70;99.90;;;;;;5080932;28;20459;-72
2022/12/31 12:52:46;;;;;;;12.60;11.57;;;17.70;99.90;;;;;;5083989;28;20458;-75
2022/12/31 12:55:20;;;;;;;12.50;11.37;;;17.70;99.90;;;;;;5078463;28;20465;-72
2022/12/31 12:57:52;;;;;;;12.80;12.00;;;17.70;99.90;;;;;;5097171;28;20482;-73
2022/12/31 13:00:21;;;;;;;12.43;11.93;;;17.70;99.90;;;;;;5078060;28;20462;-72
2022/12/31 13:03:37;;;;;;;13.40;12.30;;;16.60;99.90;;;;;;5081184;28;20462;-74
2022/12/31 13:06:19;;;;;;;14.97;13.77;;;17.60;99.90;;;;;;5075354;28;20463;-72
2022/12/31 13:09:03;;;;;;;13.40;12.60;;;17.20;99.90;;;;;;5086643;28;20460;-72
2022/12/31 13:11:38;;;;;;;11.77;11.07;;;18.90;99.90;;;;;;5086251;28;20490;-71
2022/12/31 13:14:17;;;;;;;13.93;12.60;;;16.90;99.90;;;;;;5087185;28;20822;-69
2022/12/31 13:16:51;;;;;;;14.90;14.20;;;16.80;99.90;;;;;;5093636;28;20503;-69
2022/12/31 13:19:28;;;;;;;15.73;14.50;;;16.60;99.90;;;;;;5076467;28;20512;-70
2022/12/31 13:22:01;;;;;;;14.20;13.20;;;16.40;99.90;;;;;;5080248;28;20461;-69
2022/12/31 13:24:44;;;;;;;13.50;12.70;;;16.40;99.90;;;;;;5084538;28;20868;-72
2022/12/31 13:27:20;;;;;;;10.77;10.20;;;16.50;99.90;;;;;;5083149;28;20473;-70
2022/12/31 13:29:48;;;;;;;12.10;10.80;;;16.50;99.90;;;;;;5077623;28;20470;-71
2022/12/31 13:32:19;;;;;;;10.97;10.07;;;16.60;99.90;;;;;;5090549;28;20462;-71
2022/12/31 13:34:51;;;;;;;11.60;11.00;;;16.70;99.90;;;;;;5093079;28;20452;-71
2022/12/31 13:37:27;;;;;;;11.67;11.00;;;16.20;99.90;;;;;;5080712;28;20461;-71
2022/12/31 13:40:01;;;;;;;12.37;11.30;;;16.80;99.90;;;;;;5081020;28;20584;-71
2022/12/31 13:42:35;;;;;;;12.53;11.50;;;16.90;99.90;;;;;;5077387;28;20578;-73